sensor_id;sensor_type;location;lat;lon;timestamp;P1;durP1;ratioP1;P2;durP2;ratioP2
39346;SDS011;26262;49.836;6.632;2024-02-14T00:02:23;4.25;;;2.13;;
39346;SDS011;26262;49.836;6.632;2024-02-14T00:04:51;2.35;;;1.77;;
39346;SDS011;26262;49.836;6.632;2024-02-14T00:07:19;2.63;;;1.98;;
39346;SDS011;26262;49.836;6.632;2024-02-14T00:09:45;3.80;;;1.83;;
39346;SDS011;26262;49.836;6.632;2024-02-14T00:12:11;2.72;;;2.00;;
39346;SDS011;26262;49.836;6.632;2024-02-14T00:14:37;3.20;;;2.17;;
39346;SDS011;26262;49.836;6.632;2024-02-14T00:17:03;2.47;;;1.88;;
39346;SDS011;26262;49.836;6.632;2024-02-14T00:19:30;2.53;;;1.90;;
39346;SDS011;26262;49.836;6.632;2024-02-14T00:21:56;3.58;;;1.83;;
39346;SDS011;26262;49.836;6.632;2024-02-14T00:24:21;3.00;;;1.83;;
39346;SDS011;26262;49.836;6.632;2024-02-14T00:26:48;2.60;;;1.92;;
39346;SDS011;26262;49.836;6.632;2024-02-14T00:29:15;2.17;;;1.55;;
39346;SDS011;26262;49.836;6.632;2024-02-14T00:31:40;2.15;;;1.60;;
39346;SDS011;26262;49.836;6.632;2024-02-14T00:34:08;3.25;;;1.75;;
39346;SDS011;26262;49.836;6.632;2024-02-14T00:36:33;3.22;;;2.10;;
39346;SDS011;26262;49.836;6.632;2024-02-14T00:38:59;2.58;;;1.50;;
39346;SDS011;26262;49.836;6.632;2024-02-14T00:41:24;2.67;;;1.80;;
39346;SDS011;26262;49.836;6.632;2024-02-14T00:43:54;2.50;;;1.67;;
39346;SDS011;26262;49.836;6.632;2024-02-14T00:46:20;4.72;;;2.33;;
39346;SDS011;26262;49.836;6.632;2024-02-14T00:48:46;2.70;;;1.73;;
39346;SDS011;26262;49.836;6.632;2024-02-14T00:51:11;3.05;;;1.90;;
39346;SDS011;26262;49.836;6.632;2024-02-14T00:53:37;2.13;;;1.70;;
39346;SDS011;26262;49.836;6.632;2024-02-14T00:56:03;2.72;;;1.67;;
39346;SDS011;26262;49.836;6.632;2024-02-14T00:58:28;2.78;;;1.85;;
39346;SDS011;26262;49.836;6.632;2024-02-14T01:00:54;1.85;;;1.60;;
39346;SDS011;26262;49.836;6.632;2024-02-14T01:03:19;2.92;;;1.63;;
39346;SDS011;26262;49.836;6.632;2024-02-14T01:05:45;2.67;;;1.80;;
39346;SDS011;26262;49.836;6.632;2024-02-14T01:08:12;2.63;;;1.52;;
39346;SDS011;26262;49.836;6.632;2024-02-14T01:10:38;2.97;;;1.63;;
39346;SDS011;26262;49.836;6.632;2024-02-14T01:13:03;2.67;;;1.90;;
39346;SDS011;26262;49.836;6.632;2024-02-14T01:15:31;2.60;;;2.00;;
39346;SDS011;26262;49.836;6.632;2024-02-14T01:17:56;2.90;;;1.90;;
39346;SDS011;26262;49.836;6.632;2024-02-14T01:20:22;2.85;;;1.45;;
39346;SDS011;26262;49.836;6.632;2024-02-14T01:22:48;3.15;;;1.80;;
39346;SDS011;26262;49.836;6.632;2024-02-14T01:25:13;2.63;;;1.83;;
39346;SDS011;26262;49.836;6.632;2024-02-14T01:27:39;4.10;;;2.00;;
39346;SDS011;26262;49.836;6.632;2024-02-14T01:30:06;2.40;;;1.60;;
39346;SDS011;26262;49.836;6.632;2024-02-14T01:32:32;2.03;;;1.45;;
39346;SDS011;26262;49.836;6.632;2024-02-14T01:34:57;4.18;;;2.17;;
39346;SDS011;26262;49.836;6.632;2024-02-14T01:37:24;3.38;;;1.92;;
39346;SDS011;26262;49.836;6.632;2024-02-14T01:39:50;2.60;;;1.73;;
39346;SDS011;26262;49.836;6.632;2024-02-14T01:42:15;2.00;;;1.52;;
39346;SDS011;26262;49.836;6.632;2024-02-14T01:44:41;3.13;;;1.88;;
39346;SDS011;26262;49.836;6.632;2024-02-14T01:47:08;1.83;;;1.50;;
39346;SDS011;26262;49.836;6.632;2024-02-14T01:49:35;2.72;;;1.60;;
39346;SDS011;26262;49.836;6.632;2024-02-14T01:52:01;2.03;;;1.35;;
39346;SDS011;26262;49.836;6.632;2024-02-14T01:54:28;2.00;;;1.50;;
39346;SDS011;26262;49.836;6.632;2024-02-14T01:56:55;2.30;;;1.45;;
39346;SDS011;26262;49.836;6.632;2024-02-14T01:59:23;1.77;;;1.33;;
39346;SDS011;26262;49.836;6.632;2024-02-14T02:01:49;2.28;;;1.70;;
39346;SDS011;26262;49.836;6.632;2024-02-14T02:04:16;2.33;;;1.80;;
39346;SDS011;26262;49.836;6.632;2024-02-14T02:06:43;2.85;;;1.90;;
39346;SDS011;26262;49.836;6.632;2024-02-14T02:09:09;2.45;;;1.60;;
39346;SDS011;26262;49.836;6.632;2024-02-14T02:11:48;3.53;;;1.95;;
39346;SDS011;26262;49.836;6.632;2024-02-14T02:14:14;2.10;;;1.65;;
39346;SDS011;26262;49.836;6.632;2024-02-14T02:16:41;2.03;;;1.65;;
39346;SDS011;26262;49.836;6.632;2024-02-14T02:19:07;2.05;;;1.55;;
39346;SDS011;26262;49.836;6.632;2024-02-14T02:21:34;2.40;;;1.77;;
39346;SDS011;26262;49.836;6.632;2024-02-14T02:24:00;2.53;;;1.63;;
39346;SDS011;26262;49.836;6.632;2024-02-14T02:26:26;3.53;;;1.65;;
39346;SDS011;26262;49.836;6.632;2024-02-14T02:28:52;3.42;;;2.13;;
39346;SDS011;26262;49.836;6.632;2024-02-14T02:31:18;2.25;;;1.42;;
39346;SDS011;26262;49.836;6.632;2024-02-14T02:33:44;2.38;;;1.60;;
39346;SDS011;26262;49.836;6.632;2024-02-14T02:36:09;2.15;;;1.60;;
39346;SDS011;26262;49.836;6.632;2024-02-14T02:38:35;2.63;;;1.80;;
39346;SDS011;26262;49.836;6.632;2024-02-14T02:41:01;2.70;;;1.60;;
39346;SDS011;26262;49.836;6.632;2024-02-14T02:43:33;2.33;;;1.50;;
39346;SDS011;26262;49.836;6.632;2024-02-14T02:45:59;1.83;;;1.35;;
39346;SDS011;26262;49.836;6.632;2024-02-14T02:48:25;2.42;;;1.75;;
39346;SDS011;26262;49.836;6.632;2024-02-14T02:50:51;1.75;;;1.35;;
39346;SDS011;26262;49.836;6.632;2024-02-14T02:53:17;2.53;;;1.42;;
39346;SDS011;26262;49.836;6.632;2024-02-14T02:55:43;1.83;;;1.38;;
39346;SDS011;26262;49.836;6.632;2024-02-14T02:58:09;2.85;;;1.48;;
39346;SDS011;26262;49.836;6.632;2024-02-14T03:00:35;2.58;;;1.80;;
39346;SDS011;26262;49.836;6.632;2024-02-14T03:03:00;2.47;;;1.55;;
39346;SDS011;26262;49.836;6.632;2024-02-14T03:05:27;1.90;;;1.40;;
39346;SDS011;26262;49.836;6.632;2024-02-14T03:07:53;1.75;;;1.50;;
39346;SDS011;26262;49.836;6.632;2024-02-14T03:10:22;2.80;;;1.65;;
39346;SDS011;26262;49.836;6.632;2024-02-14T03:12:48;3.10;;;1.65;;
39346;SDS011;26262;49.836;6.632;2024-02-14T03:15:14;1.92;;;1.50;;
39346;SDS011;26262;49.836;6.632;2024-02-14T03:17:40;2.45;;;1.70;;
39346;SDS011;26262;49.836;6.632;2024-02-14T03:20:07;1.73;;;1.35;;
39346;SDS011;26262;49.836;6.632;2024-02-14T03:22:35;3.17;;;1.65;;
39346;SDS011;26262;49.836;6.632;2024-02-14T03:25:02;2.07;;;1.73;;
39346;SDS011;26262;49.836;6.632;2024-02-14T03:27:28;2.28;;;1.55;;
39346;SDS011;26262;49.836;6.632;2024-02-14T03:29:56;2.22;;;1.60;;
39346;SDS011;26262;49.836;6.632;2024-02-14T03:32:23;2.97;;;1.30;;
39346;SDS011;26262;49.836;6.632;2024-02-14T03:34:49;2.05;;;1.42;;
39346;SDS011;26262;49.836;6.632;2024-02-14T03:37:14;2.22;;;1.50;;
39346;SDS011;26262;49.836;6.632;2024-02-14T03:39:40;1.83;;;1.30;;
39346;SDS011;26262;49.836;6.632;2024-02-14T03:42:05;2.40;;;1.60;;
39346;SDS011;26262;49.836;6.632;2024-02-14T03:44:32;1.85;;;1.25;;
39346;SDS011;26262;49.836;6.632;2024-02-14T03:46:58;2.17;;;1.38;;
39346;SDS011;26262;49.836;6.632;2024-02-14T03:49:25;1.95;;;1.27;;
39346;SDS011;26262;49.836;6.632;2024-02-14T03:51:50;2.28;;;1.70;;
39346;SDS011;26262;49.836;6.632;2024-02-14T03:54:19;2.45;;;1.60;;
39346;SDS011;26262;49.836;6.632;2024-02-14T03:56:45;2.63;;;1.38;;
39346;SDS011;26262;49.836;6.632;2024-02-14T03:59:11;2.17;;;1.67;;
39346;SDS011;26262;49.836;6.632;2024-02-14T04:01:36;2.55;;;1.42;;
39346;SDS011;26262;49.836;6.632;2024-02-14T04:04:02;1.63;;;1.30;;
39346;SDS011;26262;49.836;6.632;2024-02-14T04:06:27;2.28;;;1.60;;
39346;SDS011;26262;49.836;6.632;2024-02-14T04:08:56;2.20;;;1.40;;
39346;SDS011;26262;49.836;6.632;2024-02-14T04:11:22;2.35;;;1.25;;
39346;SDS011;26262;49.836;6.632;2024-02-14T04:13:48;2.25;;;1.40;;
39346;SDS011;26262;49.836;6.632;2024-02-14T04:16:13;2.47;;;1.30;;
39346;SDS011;26262;49.836;6.632;2024-02-14T04:18:39;2.35;;;1.55;;
39346;SDS011;26262;49.836;6.632;2024-02-14T04:21:07;2.17;;;1.70;;
39346;SDS011;26262;49.836;6.632;2024-02-14T04:23:33;2.30;;;1.48;;
39346;SDS011;26262;49.836;6.632;2024-02-14T04:25:58;2.20;;;1.40;;
39346;SDS011;26262;49.836;6.632;2024-02-14T04:28:24;2.65;;;1.60;;
39346;SDS011;26262;49.836;6.632;2024-02-14T04:30:49;2.30;;;1.63;;
39346;SDS011;26262;49.836;6.632;2024-02-14T04:33:15;2.40;;;1.15;;
39346;SDS011;26262;49.836;6.632;2024-02-14T04:35:40;2.42;;;1.65;;
39346;SDS011;26262;49.836;6.632;2024-02-14T04:38:06;2.28;;;1.30;;
39346;SDS011;26262;49.836;6.632;2024-02-14T04:40:33;1.65;;;1.17;;
39346;SDS011;26262;49.836;6.632;2024-02-14T04:42:59;2.92;;;1.10;;
39346;SDS011;26262;49.836;6.632;2024-02-14T04:45:25;2.53;;;1.77;;
39346;SDS011;26262;49.836;6.632;2024-02-14T04:47:51;1.73;;;1.30;;
39346;SDS011;26262;49.836;6.632;2024-02-14T04:50:17;1.88;;;1.20;;
39346;SDS011;26262;49.836;6.632;2024-02-14T04:52:43;2.92;;;1.55;;
39346;SDS011;26262;49.836;6.632;2024-02-14T04:55:09;2.80;;;1.45;;
39346;SDS011;26262;49.836;6.632;2024-02-14T04:57:35;1.85;;;1.38;;
39346;SDS011;26262;49.836;6.632;2024-02-14T05:00:02;1.83;;;1.08;;
39346;SDS011;26262;49.836;6.632;2024-02-14T05:02:30;1.90;;;1.40;;
39346;SDS011;26262;49.836;6.632;2024-02-14T05:04:56;1.67;;;1.13;;
39346;SDS011;26262;49.836;6.632;2024-02-14T05:07:21;2.05;;;1.33;;
39346;SDS011;26262;49.836;6.632;2024-02-14T05:09:47;1.83;;;1.23;;
39346;SDS011;26262;49.836;6.632;2024-02-14T05:12:15;1.48;;;1.00;;
39346;SDS011;26262;49.836;6.632;2024-02-14T05:14:40;1.90;;;1.30;;
39346;SDS011;26262;49.836;6.632;2024-02-14T05:17:07;1.98;;;1.10;;
39346;SDS011;26262;49.836;6.632;2024-02-14T05:19:33;1.70;;;1.20;;
39346;SDS011;26262;49.836;6.632;2024-02-14T05:21:58;2.33;;;1.30;;
39346;SDS011;26262;49.836;6.632;2024-02-14T05:24:24;1.92;;;1.27;;
39346;SDS011;26262;49.836;6.632;2024-02-14T05:26:52;2.53;;;1.15;;
39346;SDS011;26262;49.836;6.632;2024-02-14T05:29:18;1.55;;;1.35;;
39346;SDS011;26262;49.836;6.632;2024-02-14T05:31:46;1.20;;;1.10;;
39346;SDS011;26262;49.836;6.632;2024-02-14T05:34:13;2.58;;;1.08;;
39346;SDS011;26262;49.836;6.632;2024-02-14T05:36:39;1.40;;;1.20;;
39346;SDS011;26262;49.836;6.632;2024-02-14T05:39:05;1.48;;;1.17;;
39346;SDS011;26262;49.836;6.632;2024-02-14T05:41:33;1.45;;;1.20;;
39346;SDS011;26262;49.836;6.632;2024-02-14T05:43:59;2.13;;;1.35;;
39346;SDS011;26262;49.836;6.632;2024-02-14T05:46:28;1.30;;;1.05;;
39346;SDS011;26262;49.836;6.632;2024-02-14T05:48:53;3.05;;;1.30;;
39346;SDS011;26262;49.836;6.632;2024-02-14T05:51:20;1.63;;;1.15;;
39346;SDS011;26262;49.836;6.632;2024-02-14T05:53:45;2.33;;;1.42;;
39346;SDS011;26262;49.836;6.632;2024-02-14T05:56:11;1.70;;;1.20;;
39346;SDS011;26262;49.836;6.632;2024-02-14T05:58:36;1.45;;;1.27;;
39346;SDS011;26262;49.836;6.632;2024-02-14T06:01:02;2.03;;;1.20;;
39346;SDS011;26262;49.836;6.632;2024-02-14T06:03:28;1.15;;;1.05;;
39346;SDS011;26262;49.836;6.632;2024-02-14T06:05:53;1.50;;;1.00;;
39346;SDS011;26262;49.836;6.632;2024-02-14T06:08:19;2.13;;;1.30;;
39346;SDS011;26262;49.836;6.632;2024-02-14T06:10:45;2.30;;;1.30;;
39346;SDS011;26262;49.836;6.632;2024-02-14T06:13:11;1.40;;;1.10;;
39346;SDS011;26262;49.836;6.632;2024-02-14T06:15:36;1.88;;;1.20;;
39346;SDS011;26262;49.836;6.632;2024-02-14T06:18:02;1.63;;;0.90;;
39346;SDS011;26262;49.836;6.632;2024-02-14T06:20:27;2.08;;;1.13;;
39346;SDS011;26262;49.836;6.632;2024-02-14T06:22:53;2.33;;;1.10;;
39346;SDS011;26262;49.836;6.632;2024-02-14T06:25:19;3.55;;;1.20;;
39346;SDS011;26262;49.836;6.632;2024-02-14T06:27:45;1.85;;;1.20;;
39346;SDS011;26262;49.836;6.632;2024-02-14T06:30:11;2.35;;;1.50;;
39346;SDS011;26262;49.836;6.632;2024-02-14T06:32:37;1.67;;;1.20;;
39346;SDS011;26262;49.836;6.632;2024-02-14T06:35:02;2.10;;;1.35;;
39346;SDS011;26262;49.836;6.632;2024-02-14T06:37:28;2.35;;;1.48;;
39346;SDS011;26262;49.836;6.632;2024-02-14T06:39:53;1.60;;;1.30;;
39346;SDS011;26262;49.836;6.632;2024-02-14T06:42:19;1.83;;;1.25;;
39346;SDS011;26262;49.836;6.632;2024-02-14T06:44:45;1.65;;;0.98;;
39346;SDS011;26262;49.836;6.632;2024-02-14T06:47:11;1.98;;;1.20;;
39346;SDS011;26262;49.836;6.632;2024-02-14T06:49:36;2.35;;;1.10;;
39346;SDS011;26262;49.836;6.632;2024-02-14T06:52:02;1.65;;;1.00;;
39346;SDS011;26262;49.836;6.632;2024-02-14T06:54:28;1.98;;;1.02;;
39346;SDS011;26262;49.836;6.632;2024-02-14T06:56:54;1.30;;;1.05;;
39346;SDS011;26262;49.836;6.632;2024-02-14T06:59:23;2.47;;;1.27;;
39346;SDS011;26262;49.836;6.632;2024-02-14T07:01:48;1.80;;;1.30;;
39346;SDS011;26262;49.836;6.632;2024-02-14T07:04:14;1.80;;;1.30;;
39346;SDS011;26262;49.836;6.632;2024-02-14T07:06:40;1.58;;;1.20;;
39346;SDS011;26262;49.836;6.632;2024-02-14T07:09:06;1.48;;;1.10;;
39346;SDS011;26262;49.836;6.632;2024-02-14T07:11:31;1.35;;;1.10;;
39346;SDS011;26262;49.836;6.632;2024-02-14T07:13:57;2.10;;;1.13;;
39346;SDS011;26262;49.836;6.632;2024-02-14T07:16:23;1.63;;;1.08;;
39346;SDS011;26262;49.836;6.632;2024-02-14T07:18:49;1.50;;;1.20;;
39346;SDS011;26262;49.836;6.632;2024-02-14T07:21:15;1.40;;;0.95;;
39346;SDS011;26262;49.836;6.632;2024-02-14T07:23:41;2.00;;;1.17;;
39346;SDS011;26262;49.836;6.632;2024-02-14T07:26:07;1.35;;;1.00;;
39346;SDS011;26262;49.836;6.632;2024-02-14T07:28:32;1.23;;;0.95;;
39346;SDS011;26262;49.836;6.632;2024-02-14T07:30:58;1.63;;;1.10;;
39346;SDS011;26262;49.836;6.632;2024-02-14T07:33:23;2.00;;;1.27;;
39346;SDS011;26262;49.836;6.632;2024-02-14T07:35:49;1.55;;;1.00;;
39346;SDS011;26262;49.836;6.632;2024-02-14T07:38:15;1.63;;;1.20;;
39346;SDS011;26262;49.836;6.632;2024-02-14T07:40:41;2.35;;;1.30;;
39346;SDS011;26262;49.836;6.632;2024-02-14T07:43:07;1.55;;;0.90;;
39346;SDS011;26262;49.836;6.632;2024-02-14T07:45:33;1.88;;;1.20;;
39346;SDS011;26262;49.836;6.632;2024-02-14T07:47:58;2.50;;;1.40;;
39346;SDS011;26262;49.836;6.632;2024-02-14T07:50:24;1.45;;;1.00;;
39346;SDS011;26262;49.836;6.632;2024-02-14T07:52:50;1.10;;;1.00;;
39346;SDS011;26262;49.836;6.632;2024-02-14T07:55:15;1.38;;;1.08;;
39346;SDS011;26262;49.836;6.632;2024-02-14T07:57:41;1.30;;;1.00;;
39346;SDS011;26262;49.836;6.632;2024-02-14T08:00:07;1.23;;;0.90;;
39346;SDS011;26262;49.836;6.632;2024-02-14T08:02:34;1.65;;;1.20;;
39346;SDS011;26262;49.836;6.632;2024-02-14T08:05:01;1.80;;;1.35;;
39346;SDS011;26262;49.836;6.632;2024-02-14T08:07:27;1.17;;;1.05;;
39346;SDS011;26262;49.836;6.632;2024-02-14T08:09:53;1.77;;;1.20;;
39346;SDS011;26262;49.836;6.632;2024-02-14T08:12:20;2.03;;;1.10;;
39346;SDS011;26262;49.836;6.632;2024-02-14T08:14:46;1.77;;;0.80;;
39346;SDS011;26262;49.836;6.632;2024-02-14T08:17:12;1.38;;;0.90;;
39346;SDS011;26262;49.836;6.632;2024-02-14T08:19:38;1.40;;;0.95;;
39346;SDS011;26262;49.836;6.632;2024-02-14T08:22:04;1.58;;;1.20;;
39346;SDS011;26262;49.836;6.632;2024-02-14T08:24:30;1.60;;;1.20;;
39346;SDS011;26262;49.836;6.632;2024-02-14T08:26:56;2.05;;;1.10;;
39346;SDS011;26262;49.836;6.632;2024-02-14T08:29:22;1.63;;;1.10;;
39346;SDS011;26262;49.836;6.632;2024-02-14T08:31:48;1.23;;;1.00;;
39346;SDS011;26262;49.836;6.632;2024-02-14T08:34:13;1.15;;;0.80;;
39346;SDS011;26262;49.836;6.632;2024-02-14T08:36:39;2.08;;;1.10;;
39346;SDS011;26262;49.836;6.632;2024-02-14T08:39:09;2.03;;;1.00;;
39346;SDS011;26262;49.836;6.632;2024-02-14T08:41:36;1.50;;;1.10;;
39346;SDS011;26262;49.836;6.632;2024-02-14T08:44:02;2.15;;;1.02;;
39346;SDS011;26262;49.836;6.632;2024-02-14T08:46:29;1.00;;;0.88;;
39346;SDS011;26262;49.836;6.632;2024-02-14T08:48:54;1.58;;;1.15;;
39346;SDS011;26262;49.836;6.632;2024-02-14T08:51:20;1.23;;;0.80;;
39346;SDS011;26262;49.836;6.632;2024-02-14T08:53:46;1.70;;;1.00;;
39346;SDS011;26262;49.836;6.632;2024-02-14T08:56:11;1.33;;;1.10;;
39346;SDS011;26262;49.836;6.632;2024-02-14T08:58:37;1.70;;;1.10;;
39346;SDS011;26262;49.836;6.632;2024-02-14T09:01:04;1.40;;;0.90;;
39346;SDS011;26262;49.836;6.632;2024-02-14T09:03:30;0.93;;;0.75;;
39346;SDS011;26262;49.836;6.632;2024-02-14T09:05:56;1.55;;;0.90;;
39346;SDS011;26262;49.836;6.632;2024-02-14T09:08:22;2.10;;;1.17;;
39346;SDS011;26262;49.836;6.632;2024-02-14T09:10:49;1.40;;;1.02;;
39346;SDS011;26262;49.836;6.632;2024-02-14T09:13:17;1.08;;;0.80;;
39346;SDS011;26262;49.836;6.632;2024-02-14T09:15:43;1.23;;;0.90;;
39346;SDS011;26262;49.836;6.632;2024-02-14T09:18:09;1.80;;;1.10;;
39346;SDS011;26262;49.836;6.632;2024-02-14T09:20:34;1.10;;;1.00;;
39346;SDS011;26262;49.836;6.632;2024-02-14T09:23:00;1.58;;;1.00;;
39346;SDS011;26262;49.836;6.632;2024-02-14T09:25:25;2.10;;;1.17;;
39346;SDS011;26262;49.836;6.632;2024-02-14T09:27:51;1.42;;;1.05;;
39346;SDS011;26262;49.836;6.632;2024-02-14T09:30:16;1.33;;;1.10;;
39346;SDS011;26262;49.836;6.632;2024-02-14T09:32:43;1.48;;;0.90;;
39346;SDS011;26262;49.836;6.632;2024-02-14T09:35:09;1.58;;;1.10;;
39346;SDS011;26262;49.836;6.632;2024-02-14T09:37:35;2.03;;;1.08;;
39346;SDS011;26262;49.836;6.632;2024-02-14T09:42:35;1.30;;;0.80;;
39346;SDS011;26262;49.836;6.632;2024-02-14T09:45:05;1.80;;;1.27;;
39346;SDS011;26262;49.836;6.632;2024-02-14T09:47:32;1.38;;;1.00;;
39346;SDS011;26262;49.836;6.632;2024-02-14T09:49:58;1.30;;;0.90;;
39346;SDS011;26262;49.836;6.632;2024-02-14T09:52:26;0.80;;;0.77;;
39346;SDS011;26262;49.836;6.632;2024-02-14T09:54:52;1.42;;;0.90;;
39346;SDS011;26262;49.836;6.632;2024-02-14T09:57:19;1.75;;;1.08;;
39346;SDS011;26262;49.836;6.632;2024-02-14T09:59:45;1.88;;;0.88;;
39346;SDS011;26262;49.836;6.632;2024-02-14T10:02:11;2.33;;;0.90;;
39346;SDS011;26262;49.836;6.632;2024-02-14T10:04:37;1.17;;;0.80;;
39346;SDS011;26262;49.836;6.632;2024-02-14T10:07:06;1.95;;;1.05;;
39346;SDS011;26262;49.836;6.632;2024-02-14T10:09:39;1.83;;;0.70;;
39346;SDS011;26262;49.836;6.632;2024-02-14T10:12:07;1.92;;;1.00;;
39346;SDS011;26262;49.836;6.632;2024-02-14T10:14:34;1.70;;;0.93;;
39346;SDS011;26262;49.836;6.632;2024-02-14T10:17:00;1.75;;;0.85;;
39346;SDS011;26262;49.836;6.632;2024-02-14T10:19:26;1.80;;;1.20;;
39346;SDS011;26262;49.836;6.632;2024-02-14T10:21:55;2.13;;;0.98;;
39346;SDS011;26262;49.836;6.632;2024-02-14T10:24:26;2.03;;;1.00;;
39346;SDS011;26262;49.836;6.632;2024-02-14T10:26:52;2.55;;;1.10;;
39346;SDS011;26262;49.836;6.632;2024-02-14T10:29:19;1.15;;;1.00;;
39346;SDS011;26262;49.836;6.632;2024-02-14T10:31:45;0.95;;;0.80;;
39346;SDS011;26262;49.836;6.632;2024-02-14T10:34:11;1.92;;;1.20;;
39346;SDS011;26262;49.836;6.632;2024-02-14T10:36:37;1.35;;;0.90;;
39346;SDS011;26262;49.836;6.632;2024-02-14T10:39:06;1.77;;;0.90;;
39346;SDS011;26262;49.836;6.632;2024-02-14T10:41:32;2.15;;;1.02;;
39346;SDS011;26262;49.836;6.632;2024-02-14T10:44:03;1.65;;;1.00;;
39346;SDS011;26262;49.836;6.632;2024-02-14T10:46:33;1.42;;;0.80;;
39346;SDS011;26262;49.836;6.632;2024-02-14T10:49:02;1.30;;;0.80;;
39346;SDS011;26262;49.836;6.632;2024-02-14T10:51:32;2.25;;;1.02;;
39346;SDS011;26262;49.836;6.632;2024-02-14T10:54:00;1.52;;;0.80;;
39346;SDS011;26262;49.836;6.632;2024-02-14T10:56:31;2.45;;;1.05;;
39346;SDS011;26262;49.836;6.632;2024-02-14T10:59:00;1.52;;;0.80;;
39346;SDS011;26262;49.836;6.632;2024-02-14T11:01:27;2.05;;;0.90;;
39346;SDS011;26262;49.836;6.632;2024-02-14T11:03:57;1.27;;;0.88;;
39346;SDS011;26262;49.836;6.632;2024-02-14T11:06:24;1.58;;;0.95;;
39346;SDS011;26262;49.836;6.632;2024-02-14T11:09:03;1.48;;;0.90;;
39346;SDS011;26262;49.836;6.632;2024-02-14T11:11:35;1.40;;;0.70;;
39346;SDS011;26262;49.836;6.632;2024-02-14T11:14:01;0.73;;;0.68;;
39346;SDS011;26262;49.836;6.632;2024-02-14T11:16:30;0.77;;;0.70;;
39346;SDS011;26262;49.836;6.632;2024-02-14T11:19:10;1.17;;;0.65;;
39346;SDS011;26262;49.836;6.632;2024-02-14T11:21:40;3.00;;;0.82;;
39346;SDS011;26262;49.836;6.632;2024-02-14T11:24:11;1.42;;;1.10;;
39346;SDS011;26262;49.836;6.632;2024-02-14T11:26:48;1.58;;;0.93;;
39346;SDS011;26262;49.836;6.632;2024-02-14T11:29:16;2.42;;;1.00;;
39346;SDS011;26262;49.836;6.632;2024-02-14T11:31:43;2.33;;;0.98;;
39346;SDS011;26262;49.836;6.632;2024-02-14T11:34:12;1.25;;;0.88;;
39346;SDS011;26262;49.836;6.632;2024-02-14T11:36:41;0.90;;;0.63;;
39346;SDS011;26262;49.836;6.632;2024-02-14T11:39:08;1.63;;;0.93;;
39346;SDS011;26262;49.836;6.632;2024-02-14T11:41:33;1.75;;;1.00;;
39346;SDS011;26262;49.836;6.632;2024-02-14T11:44:03;1.13;;;0.82;;
39346;SDS011;26262;49.836;6.632;2024-02-14T11:46:32;1.35;;;0.80;;
39346;SDS011;26262;49.836;6.632;2024-02-14T11:49:00;1.30;;;0.90;;
39346;SDS011;26262;49.836;6.632;2024-02-14T11:51:31;1.63;;;0.93;;
39346;SDS011;26262;49.836;6.632;2024-02-14T11:53:58;0.90;;;0.80;;
39346;SDS011;26262;49.836;6.632;2024-02-14T11:56:32;1.70;;;1.00;;
39346;SDS011;26262;49.836;6.632;2024-02-14T11:59:00;1.15;;;0.65;;
39346;SDS011;26262;49.836;6.632;2024-02-14T12:01:30;1.95;;;1.05;;
39346;SDS011;26262;49.836;6.632;2024-02-14T12:03:59;1.33;;;0.90;;
39346;SDS011;26262;49.836;6.632;2024-02-14T12:06:29;1.50;;;0.75;;
39346;SDS011;26262;49.836;6.632;2024-02-14T12:08:57;1.20;;;0.85;;
39346;SDS011;26262;49.836;6.632;2024-02-14T12:11:26;1.88;;;0.85;;
39346;SDS011;26262;49.836;6.632;2024-02-14T12:13:54;1.38;;;0.90;;
39346;SDS011;26262;49.836;6.632;2024-02-14T12:16:19;0.80;;;0.70;;
39346;SDS011;26262;49.836;6.632;2024-02-14T12:18:46;1.15;;;0.80;;
39346;SDS011;26262;49.836;6.632;2024-02-14T12:21:11;1.05;;;0.73;;
39346;SDS011;26262;49.836;6.632;2024-02-14T12:23:37;1.38;;;1.00;;
39346;SDS011;26262;49.836;6.632;2024-02-14T12:26:03;1.48;;;0.65;;
39346;SDS011;26262;49.836;6.632;2024-02-14T12:28:30;1.67;;;0.73;;
39346;SDS011;26262;49.836;6.632;2024-02-14T12:30:57;1.60;;;0.90;;
39346;SDS011;26262;49.836;6.632;2024-02-14T12:33:26;1.85;;;0.80;;
39346;SDS011;26262;49.836;6.632;2024-02-14T12:35:55;1.10;;;0.70;;
39346;SDS011;26262;49.836;6.632;2024-02-14T12:38:23;1.40;;;0.90;;
39346;SDS011;26262;49.836;6.632;2024-02-14T12:40:49;1.55;;;0.80;;
39346;SDS011;26262;49.836;6.632;2024-02-14T12:43:16;2.20;;;1.08;;
39346;SDS011;26262;49.836;6.632;2024-02-14T12:45:42;2.53;;;1.02;;
39346;SDS011;26262;49.836;6.632;2024-02-14T12:48:09;1.00;;;0.80;;
39346;SDS011;26262;49.836;6.632;2024-02-14T12:50:37;1.27;;;0.82;;
39346;SDS011;26262;49.836;6.632;2024-02-14T12:53:06;1.38;;;0.73;;
39346;SDS011;26262;49.836;6.632;2024-02-14T12:55:32;1.10;;;0.98;;
39346;SDS011;26262;49.836;6.632;2024-02-14T12:57:58;2.30;;;1.00;;
39346;SDS011;26262;49.836;6.632;2024-02-14T13:00:24;2.40;;;0.90;;
39346;SDS011;26262;49.836;6.632;2024-02-14T13:02:50;1.42;;;0.80;;
39346;SDS011;26262;49.836;6.632;2024-02-14T13:05:16;1.17;;;0.70;;
39346;SDS011;26262;49.836;6.632;2024-02-14T13:07:42;0.90;;;0.80;;
39346;SDS011;26262;49.836;6.632;2024-02-14T13:10:09;2.55;;;0.90;;
39346;SDS011;26262;49.836;6.632;2024-02-14T13:12:35;0.95;;;0.75;;
39346;SDS011;26262;49.836;6.632;2024-02-14T13:15:02;1.23;;;1.00;;
39346;SDS011;26262;49.836;6.632;2024-02-14T13:17:28;1.55;;;0.77;;
39346;SDS011;26262;49.836;6.632;2024-02-14T13:19:54;1.77;;;1.00;;
39346;SDS011;26262;49.836;6.632;2024-02-14T13:22:19;1.23;;;0.98;;
39346;SDS011;26262;49.836;6.632;2024-02-14T13:24:45;1.15;;;0.82;;
39346;SDS011;26262;49.836;6.632;2024-02-14T13:27:11;1.58;;;0.75;;
39346;SDS011;26262;49.836;6.632;2024-02-14T13:29:37;1.52;;;1.02;;
39346;SDS011;26262;49.836;6.632;2024-02-14T13:32:03;0.93;;;0.80;;
39346;SDS011;26262;49.836;6.632;2024-02-14T13:34:30;1.55;;;0.98;;
39346;SDS011;26262;49.836;6.632;2024-02-14T13:36:55;0.80;;;0.70;;
39346;SDS011;26262;49.836;6.632;2024-02-14T13:39:23;1.52;;;0.95;;
39346;SDS011;26262;49.836;6.632;2024-02-14T13:41:48;1.10;;;0.70;;
39346;SDS011;26262;49.836;6.632;2024-02-14T13:44:14;0.88;;;0.75;;
39346;SDS011;26262;49.836;6.632;2024-02-14T13:46:43;1.70;;;0.80;;
39346;SDS011;26262;49.836;6.632;2024-02-14T13:49:10;1.10;;;0.90;;
39346;SDS011;26262;49.836;6.632;2024-02-14T13:51:36;0.88;;;0.80;;
39346;SDS011;26262;49.836;6.632;2024-02-14T13:54:02;1.20;;;0.90;;
39346;SDS011;26262;49.836;6.632;2024-02-14T13:56:28;2.03;;;1.00;;
39346;SDS011;26262;49.836;6.632;2024-02-14T13:58:54;1.23;;;0.85;;
39346;SDS011;26262;49.836;6.632;2024-02-14T14:01:20;1.17;;;0.90;;
39346;SDS011;26262;49.836;6.632;2024-02-14T14:03:45;1.17;;;0.95;;
39346;SDS011;26262;49.836;6.632;2024-02-14T14:06:12;1.25;;;0.82;;
39346;SDS011;26262;49.836;6.632;2024-02-14T14:08:38;1.42;;;0.90;;
39346;SDS011;26262;49.836;6.632;2024-02-14T14:11:04;1.50;;;0.98;;
39346;SDS011;26262;49.836;6.632;2024-02-14T14:13:30;0.90;;;0.80;;
39346;SDS011;26262;49.836;6.632;2024-02-14T14:15:58;2.38;;;0.82;;
39346;SDS011;26262;49.836;6.632;2024-02-14T14:18:29;0.95;;;0.80;;
39346;SDS011;26262;49.836;6.632;2024-02-14T14:20:55;0.77;;;0.73;;
39346;SDS011;26262;49.836;6.632;2024-02-14T14:23:21;0.60;;;0.60;;
39346;SDS011;26262;49.836;6.632;2024-02-14T14:25:46;0.88;;;0.70;;
39346;SDS011;26262;49.836;6.632;2024-02-14T14:28:12;1.58;;;1.05;;
39346;SDS011;26262;49.836;6.632;2024-02-14T14:30:39;1.03;;;0.80;;
39346;SDS011;26262;49.836;6.632;2024-02-14T14:33:05;1.60;;;1.10;;
39346;SDS011;26262;49.836;6.632;2024-02-14T14:35:33;2.20;;;1.20;;
39346;SDS011;26262;49.836;6.632;2024-02-14T14:37:59;0.85;;;0.75;;
39346;SDS011;26262;49.836;6.632;2024-02-14T14:40:25;1.05;;;0.75;;
39346;SDS011;26262;49.836;6.632;2024-02-14T14:42:51;1.25;;;0.70;;
39346;SDS011;26262;49.836;6.632;2024-02-14T14:45:17;0.88;;;0.73;;
39346;SDS011;26262;49.836;6.632;2024-02-14T14:47:43;1.77;;;1.08;;